sensor_id;sensor_type;location;lat;lon;timestamp;pressure;altitude;pressure_sealevel;temperature;humidity
18765;BME280;9511;54.242;12.448;2024-02-04T04:05:48;101080.25;;;5.46;97.53
18765;BME280;9511;54.242;12.448;2024-02-04T04:08:15;101085.34;;;5.43;97.51
18765;BME280;9511;54.242;12.448;2024-02-04T04:10:44;101083.53;;;5.42;97.75
18765;BME280;9511;54.242;12.448;2024-02-04T04:13:11;101081.81;;;5.43;97.83
18765;BME280;9511;54.242;12.448;2024-02-04T04:15:39;101079.25;;;5.44;98.35
18765;BME280;9511;54.242;12.448;2024-02-04T04:18:08;101066.13;;;5.44;98.05
18765;BME280;9511;54.242;12.448;2024-02-04T04:20:36;101063.38;;;5.41;97.92
18765;BME280;9511;54.242;12.448;2024-02-04T04:23:05;101060.75;;;5.41;98.03
18765;BME280;9511;54.242;12.448;2024-02-04T04:25:32;101055.50;;;5.41;98.12
18765;BME280;9511;54.242;12.448;2024-02-04T04:28:00;101052.88;;;5.41;98.11
18765;BME280;9511;54.242;12.448;2024-02-04T04:30:27;101053.72;;;5.40;98.15
18765;BME280;9511;54.242;12.448;2024-02-04T04:32:54;101058.19;;;5.43;98.27
18765;BME280;9511;54.242;12.448;2024-02-04T04:35:22;101038.94;;;5.42;98.19
18765;BME280;9511;54.242;12.448;2024-02-04T04:37:49;101043.34;;;5.43;98.34
18765;BME280;9511;54.242;12.448;2024-02-04T04:40:17;101031.25;;;5.45;98.14
18765;BME280;9511;54.242;12.448;2024-02-04T04:42:44;101020.75;;;5.45;98.06
18765;BME280;9511;54.242;12.448;2024-02-04T04:45:12;101029.56;;;5.47;98.15
18765;BME280;9511;54.242;12.448;2024-02-04T04:47:40;101034.75;;;5.46;97.90
18765;BME280;9511;54.242;12.448;2024-02-04T04:50:08;101025.16;;;5.46;97.84
18765;BME280;9511;54.242;12.448;2024-02-04T04:52:35;101027.03;;;5.49;97.74
18765;BME280;9511;54.242;12.448;2024-02-04T04:55:02;101019.22;;;5.50;97.60
18765;BME280;9511;54.242;12.448;2024-02-04T04:57:31;101015.69;;;5.50;97.50
18765;BME280;9511;54.242;12.448;2024-02-04T04:59:58;101012.34;;;5.52;97.78
18765;BME280;9511;54.242;12.448;2024-02-04T05:02:32;101023.81;;;5.54;97.64
18765;BME280;9511;54.242;12.448;2024-02-04T05:04:59;101017.59;;;5.52;97.50
18765;BME280;9511;54.242;12.448;2024-02-04T05:07:26;101020.44;;;5.57;97.11
18765;BME280;9511;54.242;12.448;2024-02-04T05:09:53;101030.06;;;5.56;97.28
18765;BME280;9511;54.242;12.448;2024-02-04T05:12:21;101021.25;;;5.56;97.48
18765;BME280;9511;54.242;12.448;2024-02-04T05:14:49;101012.47;;;5.55;97.43
18765;BME280;9511;54.242;12.448;2024-02-04T05:17:17;101019.56;;;5.56;97.58
18765;BME280;9511;54.242;12.448;2024-02-04T05:19:44;101005.59;;;5.57;97.21
18765;BME280;9511;54.242;12.448;2024-02-04T05:22:11;101007.47;;;5.60;97.26
18765;BME280;9511;54.242;12.448;2024-02-04T05:24:38;101005.00;;;5.63;97.21
18765;BME280;9511;54.242;12.448;2024-02-04T05:27:06;100996.28;;;5.64;97.67
18765;BME280;9511;54.242;12.448;2024-02-04T05:29:33;100998.16;;;5.67;97.45
18765;BME280;9511;54.242;12.448;2024-02-04T05:32:02;100988.34;;;5.63;97.36
18765;BME280;9511;54.242;12.448;2024-02-04T05:34:29;100998.03;;;5.64;97.30
18765;BME280;9511;54.242;12.448;2024-02-04T05:37:00;100994.50;;;5.63;97.44
18765;BME280;9511;54.242;12.448;2024-02-04T05:39:27;100990.38;;;5.68;97.09
18765;BME280;9511;54.242;12.448;2024-02-04T05:41:54;100983.41;;;5.69;97.14
18765;BME280;9511;54.242;12.448;2024-02-04T05:44:22;100980.69;;;5.67;96.84
18765;BME280;9511;54.242;12.448;2024-02-04T05:46:49;100987.00;;;5.71;96.89
18765;BME280;9511;54.242;12.448;2024-02-04T05:49:18;100974.69;;;5.70;96.47
18765;BME280;9511;54.242;12.448;2024-02-04T05:51:46;100975.59;;;5.70;96.79
18765;BME280;9511;54.242;12.448;2024-02-04T05:54:13;100973.94;;;5.72;96.53
18765;BME280;9511;54.242;12.448;2024-02-04T05:56:41;100985.44;;;5.74;96.34
18765;BME280;9511;54.242;12.448;2024-02-04T05:59:09;100976.66;;;5.74;95.94
18765;BME280;9511;54.242;12.448;2024-02-04T06:01:36;100979.28;;;5.74;96.21
18765;BME280;9511;54.242;12.448;2024-02-04T06:04:04;100966.94;;;5.73;95.89
18765;BME280;9511;54.242;12.448;2024-02-04T06:06:32;100969.56;;;5.73;95.84
18765;BME280;9511;54.242;12.448;2024-02-04T06:09:00;100966.06;;;5.72;95.64
18765;BME280;9511;54.242;12.448;2024-02-04T06:11:27;100969.50;;;5.71;95.84
18765;BME280;9511;54.242;12.448;2024-02-04T06:13:54;100969.44;;;5.70;95.61
18765;BME280;9511;54.242;12.448;2024-02-04T06:16:22;100969.56;;;5.73;95.53
18765;BME280;9511;54.242;12.448;2024-02-04T06:18:49;100979.19;;;5.72;95.23
18765;BME280;9511;54.242;12.448;2024-02-04T06:21:16;100973.03;;;5.72;95.25
18765;BME280;9511;54.242;12.448;2024-02-04T06:23:45;100974.69;;;5.70;95.33
18765;BME280;9511;54.242;12.448;2024-02-04T06:26:12;100979.94;;;5.70;95.13
18765;BME280;9511;54.242;12.448;2024-02-04T06:28:39;100975.00;;;5.76;94.77
18765;BME280;9511;54.242;12.448;2024-02-04T06:31:08;100973.09;;;5.73;94.56
18765;BME280;9511;54.242;12.448;2024-02-04T06:33:36;100969.56;;;5.73;94.26
18765;BME280;9511;54.242;12.448;2024-02-04T06:36:08;100975.66;;;5.72;94.24
18765;BME280;9511;54.242;12.448;2024-02-04T06:38:35;100972.91;;;5.69;94.26
18765;BME280;9511;54.242;12.448;2024-02-04T06:41:04;100972.91;;;5.69;94.09
18765;BME280;9511;54.242;12.448;2024-02-04T06:43:31;100974.69;;;5.70;94.50
18765;BME280;9511;54.242;12.448;2024-02-04T06:45:59;100966.84;;;5.89;94.97
18765;BME280;9511;54.242;12.448;2024-02-04T06:48:26;100959.59;;;5.83;94.67
18765;BME280;9511;54.242;12.448;2024-02-04T06:50:53;100961.47;;;5.86;94.40
18765;BME280;9511;54.242;12.448;2024-02-04T06:53:21;100943.94;;;5.85;94.38
18765;BME280;9511;54.242;12.448;2024-02-04T06:55:48;100962.44;;;5.88;94.23
18765;BME280;9511;54.242;12.448;2024-02-04T06:58:16;100958.63;;;5.99;94.78
18765;BME280;9511;54.242;12.448;2024-02-04T07:00:44;100949.38;;;5.90;94.38
18765;BME280;9511;54.242;12.448;2024-02-04T07:03:11;100956.78;;;5.97;94.47
18765;BME280;9511;54.242;12.448;2024-02-04T07:05:38;100953.22;;;5.96;94.26
18765;BME280;9511;54.242;12.448;2024-02-04T07:08:06;100961.09;;;5.96;94.42
18765;BME280;9511;54.242;12.448;2024-02-04T07:10:33;100952.50;;;5.81;94.35
18765;BME280;9511;54.242;12.448;2024-02-04T07:13:01;100947.66;;;5.90;94.28
18765;BME280;9511;54.242;12.448;2024-02-04T07:15:29;100937.97;;;5.89;94.63
18765;BME280;9511;54.242;12.448;2024-02-04T07:17:56;100949.78;;;5.97;94.56
18765;BME280;9511;54.242;12.448;2024-02-04T07:20:24;100927.88;;;5.97;93.93
18765;BME280;9511;54.242;12.448;2024-02-04T07:22:51;100915.84;;;6.02;94.23
18765;BME280;9511;54.242;12.448;2024-02-04T07:25:18;100920.41;;;6.06;94.19
18765;BME280;9511;54.242;12.448;2024-02-04T07:27:46;100922.91;;;6.03;93.71
18765;BME280;9511;54.242;12.448;2024-02-04T07:30:13;100927.56;;;6.08;94.10
18765;BME280;9511;54.242;12.448;2024-02-04T07:32:42;100908.81;;;5.83;93.74
18765;BME280;9511;54.242;12.448;2024-02-04T07:35:10;100920.44;;;5.88;94.30
18765;BME280;9511;54.242;12.448;2024-02-04T07:37:38;100917.53;;;5.82;93.93
18765;BME280;9511;54.242;12.448;2024-02-04T07:40:06;100904.19;;;5.77;94.38
18765;BME280;9511;54.242;12.448;2024-02-04T07:42:34;100917.19;;;5.74;94.76
18765;BME280;9511;54.242;12.448;2024-02-04T07:45:01;100903.16;;;5.74;94.85
18765;BME280;9511;54.242;12.448;2024-02-04T07:47:34;100897.22;;;5.78;94.47
18765;BME280;9511;54.242;12.448;2024-02-04T07:50:03;100919.03;;;5.77;94.82
18765;BME280;9511;54.242;12.448;2024-02-04T07:52:31;100903.16;;;5.74;94.86
18765;BME280;9511;54.242;12.448;2024-02-04T07:54:58;100900.66;;;5.77;94.51
18765;BME280;9511;54.242;12.448;2024-02-04T07:57:26;100901.50;;;5.76;94.51
18765;BME280;9511;54.242;12.448;2024-02-04T07:59:53;100892.66;;;5.74;94.85
18765;BME280;9511;54.242;12.448;2024-02-04T08:02:21;100895.56;;;5.80;94.90
18765;BME280;9511;54.242;12.448;2024-02-04T08:04:48;100903.56;;;5.83;94.40
18765;BME280;9511;54.242;12.448;2024-02-04T08:07:17;100902.66;;;5.82;94.54
18765;BME280;9511;54.242;12.448;2024-02-04T08:09:46;100902.66;;;5.82;94.63
18765;BME280;9511;54.242;12.448;2024-02-04T08:12:16;100894.84;;;5.84;94.33
18765;BME280;9511;54.242;12.448;2024-02-04T08:14:44;100903.72;;;5.86;94.61
18765;BME280;9511;54.242;12.448;2024-02-04T08:17:11;100891.44;;;5.85;94.25
18765;BME280;9511;54.242;12.448;2024-02-04T08:19:38;100898.66;;;5.91;94.33
18765;BME280;9511;54.242;12.448;2024-02-04T08:22:05;100884.63;;;5.90;94.13
18765;BME280;9511;54.242;12.448;2024-02-04T08:24:34;100890.78;;;5.91;93.67
18765;BME280;9511;54.242;12.448;2024-02-04T08:27:02;100896.28;;;5.95;94.16
18765;BME280;9511;54.242;12.448;2024-02-04T08:29:30;100899.06;;;5.98;93.69
18765;BME280;9511;54.242;12.448;2024-02-04T08:31:58;100898.06;;;5.96;93.61
18765;BME280;9511;54.242;12.448;2024-02-04T08:34:25;100922.63;;;5.97;93.21
18765;BME280;9511;54.242;12.448;2024-02-04T08:36:52;100909.56;;;5.98;93.40
18765;BME280;9511;54.242;12.448;2024-02-04T08:39:20;100900.84;;;5.99;93.19
18765;BME280;9511;54.242;12.448;2024-02-04T08:41:49;100889.47;;;5.99;92.78
18765;BME280;9511;54.242;12.448;2024-02-04T08:44:17;100871.13;;;6.00;93.23
18765;BME280;9511;54.242;12.448;2024-02-04T08:46:44;100891.41;;;6.03;92.78
18765;BME280;9511;54.242;12.448;2024-02-04T08:49:11;100878.19;;;6.01;92.62
18765;BME280;9511;54.242;12.448;2024-02-04T08:51:38;100873.97;;;6.05;93.12
18765;BME280;9511;54.242;12.448;2024-02-04T08:54:06;100869.50;;;6.02;92.97
18765;BME280;9511;54.242;12.448;2024-02-04T08:56:33;100876.59;;;6.05;92.76
18765;BME280;9511;54.242;12.448;2024-02-04T08:59:02;100875.50;;;6.00;92.87
18765;BME280;9511;54.242;12.448;2024-02-04T09:01:29;100851.19;;;6.04;92.91
18765;BME280;9511;54.242;12.448;2024-02-04T09:03:56;100844.16;;;6.03;92.79
18765;BME280;9511;54.242;12.448;2024-02-04T09:06:23;100853.88;;;6.05;93.03
18765;BME280;9511;54.242;12.448;2024-02-04T09:08:51;100846.81;;;6.04;92.91
18765;BME280;9511;54.242;12.448;2024-02-04T09:11:18;100835.69;;;6.10;92.91
18765;BME280;9511;54.242;12.448;2024-02-04T09:13:46;100834.91;;;6.12;92.95
18765;BME280;9511;54.242;12.448;2024-02-04T09:16:16;100834.84;;;6.11;92.99
18765;BME280;9511;54.242;12.448;2024-02-04T09:18:43;100841.97;;;6.13;92.61
18765;BME280;9511;54.242;12.448;2024-02-04T09:21:11;100832.19;;;6.09;93.31
18765;BME280;9511;54.242;12.448;2024-02-04T09:23:39;100815.69;;;6.13;92.88
18765;BME280;9511;54.242;12.448;2024-02-04T09:26:06;100832.03;;;6.06;92.83
18765;BME280;9511;54.242;12.448;2024-02-04T09:28:33;100832.03;;;6.06;92.93
18765;BME280;9511;54.242;12.448;2024-02-04T09:31:00;100814.53;;;6.07;93.26
18765;BME280;9511;54.242;12.448;2024-02-04T09:33:31;100825.13;;;6.08;93.34
18765;BME280;9511;54.242;12.448;2024-02-04T09:35:58;100820.69;;;6.07;93.26
18765;BME280;9511;54.242;12.448;2024-02-04T09:38:26;100813.53;;;6.03;93.48
18765;BME280;9511;54.242;12.448;2024-02-04T09:40:53;100819.88;;;6.08;93.65
18765;BME280;9511;54.242;12.448;2024-02-04T09:43:20;100806.75;;;6.08;93.86
18765;BME280;9511;54.242;12.448;2024-02-04T09:45:48;100819.00;;;6.08;93.84
18765;BME280;9511;54.242;12.448;2024-02-04T09:48:18;100822.34;;;6.05;93.59
18765;BME280;9511;54.242;12.448;2024-02-04T09:50:48;100821.66;;;6.09;93.74
18765;BME280;9511;54.242;12.448;2024-02-04T09:53:20;100822.63;;;6.11;93.69
18765;BME280;9511;54.242;12.448;2024-02-04T09:55:49;100829.66;;;6.12;93.89
18765;BME280;9511;54.242;12.448;2024-02-04T09:58:17;100828.66;;;6.09;93.89
18765;BME280;9511;54.242;12.448;2024-02-04T10:00:45;100839.22;;;6.10;93.53
18765;BME280;9511;54.242;12.448;2024-02-04T10:03:14;100836.59;;;6.10;94.16
18765;BME280;9511;54.242;12.448;2024-02-04T10:05:41;100845.94;;;6.04;93.80
18765;BME280;9511;54.242;12.448;2024-02-04T10:08:10;100844.19;;;6.04;94.17
18765;BME280;9511;54.242;12.448;2024-02-04T10:10:37;100846.81;;;6.04;94.11
18765;BME280;9511;54.242;12.448;2024-02-04T10:13:06;100848.56;;;6.04;94.41
18765;BME280;9511;54.242;12.448;2024-02-04T10:15:33;100834.66;;;6.06;94.27
18765;BME280;9511;54.242;12.448;2024-02-04T10:18:02;100860.00;;;6.06;94.08
18765;BME280;9511;54.242;12.448;2024-02-04T10:20:30;100854.72;;;6.04;94.10
18765;BME280;9511;54.242;12.448;2024-02-04T10:22:57;100857.34;;;6.04;93.93
18765;BME280;9511;54.242;12.448;2024-02-04T10:25:26;100851.94;;;6.01;94.36
18765;BME280;9511;54.242;12.448;2024-02-04T10:27:54;100838.94;;;6.04;94.62
18765;BME280;9511;54.242;12.448;2024-02-04T10:30:21;100855.53;;;6.03;94.59
18765;BME280;9511;54.242;12.448;2024-02-04T10:32:50;100859.75;;;6.00;94.58
18765;BME280;9511;54.242;12.448;2024-02-04T10:35:20;100845.66;;;5.98;94.20
18765;BME280;9511;54.242;12.448;2024-02-04T10:37:49;100846.41;;;5.95;94.88
18765;BME280;9511;54.242;12.448;2024-02-04T10:40:17;100840.31;;;5.96;95.24
18765;BME280;9511;54.242;12.448;2024-02-04T10:42:46;100847.41;;;5.97;95.51
18765;BME280;9511;54.242;12.448;2024-02-04T10:45:17;100851.81;;;5.98;96.07
18765;BME280;9511;54.242;12.448;2024-02-04T10:47:56;100834.94;;;5.93;96.08
18765;BME280;9511;54.242;12.448;2024-02-04T10:50:24;100842.81;;;5.93;97.01
18765;BME280;9511;54.242;12.448;2024-02-04T10:52:55;100833.03;;;5.91;97.13
18765;BME280;9511;54.242;12.448;2024-02-04T10:55:27;100828.50;;;5.86;97.33
18765;BME280;9511;54.242;12.448;2024-02-04T10:57:58;100830.53;;;5.92;97.39
18765;BME280;9511;54.242;12.448;2024-02-04T11:00:27;100837.78;;;5.98;97.39
18765;BME280;9511;54.242;12.448;2024-02-04T11:02:56;100823.50;;;5.91;97.45
18765;BME280;9511;54.242;12.448;2024-02-04T11:05:24;100829.63;;;5.92;97.08
18765;BME280;9511;54.242;12.448;2024-02-04T11:07:52;100824.78;;;6.01;96.72
18765;BME280;9511;54.242;12.448;2024-02-04T11:10:20;100828.13;;;5.97;96.75
18765;BME280;9511;54.242;12.448;2024-02-04T11:12:48;100811.59;;;5.99;96.79
18765;BME280;9511;54.242;12.448;2024-02-04T11:15:20;100826.66;;;6.03;96.46
18765;BME280;9511;54.242;12.448;2024-02-04T11:18:13;100804.66;;;6.01;95.87
18765;BME280;9511;54.242;12.448;2024-02-04T11:21:10;100805.50;;;6.00;96.00
18765;BME280;9511;54.242;12.448;2024-02-04T11:23:53;100800.19;;;5.99;96.14
18765;BME280;9511;54.242;12.448;2024-02-04T11:26:26;100788.41;;;5.91;96.72
18765;BME280;9511;54.242;12.448;2024-02-04T11:28:54;100801.66;;;5.92;97.40
18765;BME280;9511;54.242;12.448;2024-02-04T11:31:28;100790.13;;;5.90;97.37
18765;BME280;9511;54.242;12.448;2024-02-04T11:33:56;100793.00;;;5.95;97.75
18765;BME280;9511;54.242;12.448;2024-02-04T11:36:24;100805.22;;;5.94;97.69
18765;BME280;9511;54.242;12.448;2024-02-04T11:38:51;100786.84;;;5.94;97.46
18765;BME280;9511;54.242;12.448;2024-02-04T11:41:22;100788.78;;;5.98;96.92
18765;BME280;9511;54.242;12.448;2024-02-04T11:43:52;100764.47;;;6.02;96.48
18765;BME280;9511;54.242;12.448;2024-02-04T11:46:20;100774.13;;;6.03;96.72
18765;BME280;9511;54.242;12.448;2024-02-04T11:48:52;100770.94;;;6.10;96.06
18765;BME280;9511;54.242;12.448;2024-02-04T11:51:22;100762.28;;;6.13;95.87
18765;BME280;9511;54.242;12.448;2024-02-04T11:53:50;100757.22;;;6.18;96.13
18765;BME280;9511;54.242;12.448;2024-02-04T11:56:18;100771.06;;;6.13;95.91
18765;BME280;9511;54.242;12.448;2024-02-04T11:58:46;100774.03;;;6.21;95.18
18765;BME280;9511;54.242;12.448;2024-02-04T12:01:13;100764.47;;;6.23;94.82
18765;BME280;9511;54.242;12.448;2024-02-04T12:03:41;100771.59;;;6.26;94.46
18765;BME280;9511;54.242;12.448;2024-02-04T12:06:10;100764.09;;;6.35;94.47
18765;BME280;9511;54.242;12.448;2024-02-04T12:08:41;100757.31;;;6.40;94.39
18765;BME280;9511;54.242;12.448;2024-02-04T12:11:09;100757.19;;;6.37;93.42
18765;BME280;9511;54.242;12.448;2024-02-04T12:13:37;100759.03;;;6.39;93.16
18765;BME280;9511;54.242;12.448;2024-02-04T12:16:06;100760.88;;;6.42;93.03
18765;BME280;9511;54.242;12.448;2024-02-04T12:18:34;100750.38;;;6.42;92.63
18765;BME280;9511;54.242;12.448;2024-02-04T12:21:02;100753.19;;;6.47;92.72
18765;BME280;9511;54.242;12.448;2024-02-04T12:23:31;100750.66;;;6.48;91.78
18765;BME280;9511;54.242;12.448;2024-02-04T12:25:58;100753.13;;;6.45;91.61
18765;BME280;9511;54.242;12.448;2024-02-04T12:28:25;100743.53;;;6.46;91.94
18765;BME280;9511;54.242;12.448;2024-02-04T12:30:53;100748.59;;;6.41;91.81
18765;BME280;9511;54.242;12.448;2024-02-04T12:33:21;100747.94;;;6.47;91.22
18765;BME280;9511;54.242;12.448;2024-02-04T12:35:49;100739.09;;;6.45;91.62
18765;BME280;9511;54.242;12.448;2024-02-04T12:38:18;100748.78;;;6.46;91.23
18765;BME280;9511;54.242;12.448;2024-02-04T12:40:46;100749.72;;;6.48;91.04
18765;BME280;9511;54.242;12.448;2024-02-04T12:43:14;100745.50;;;6.51;90.99
18765;BME280;9511;54.242;12.448;2024-02-04T12:45:41;100747.94;;;6.47;91.31
18765;BME280;9511;54.242;12.448;2024-02-04T12:48:08;100743.66;;;6.49;91.06
18765;BME280;9511;54.242;12.448;2024-02-04T12:50:37;100754.09;;;6.47;90.75
18765;BME280;9511;54.242;12.448;2024-02-04T12:53:05;100740.13;;;6.48;91.48
18765;BME280;9511;54.242;12.448;2024-02-04T12:55:34;100747.03;;;6.46;91.09
18765;BME280;9511;54.242;12.448;2024-02-04T12:58:04;100744.31;;;6.43;91.07
18765;BME280;9511;54.242;12.448;2024-02-04T13:00:32;100745.06;;;6.41;90.63
18765;BME280;9511;54.242;12.448;2024-02-04T13:02:59;100761.66;;;6.39;90.52
18765;BME280;9511;54.242;12.448;2024-02-04T13:05:27;100739.59;;;6.36;90.93
18765;BME280;9511;54.242;12.448;2024-02-04T13:07:57;100730.91;;;6.37;91.42
18765;BME280;9511;54.242;12.448;2024-02-04T13:10:26;100741.53;;;6.40;91.42
18765;BME280;9511;54.242;12.448;2024-02-04T13:13:00;100734.25;;;6.33;91.46
18765;BME280;9511;54.242;12.448;2024-02-04T13:15:30;100742.81;;;6.29;92.40
18765;BME280;9511;54.242;12.448;2024-02-04T13:17:57;100743.81;;;6.31;92.25
18765;BME280;9511;54.242;12.448;2024-02-04T13:20:25;100727.06;;;6.29;92.25
18765;BME280;9511;54.242;12.448;2024-02-04T13:22:53;100746.34;;;6.29;92.32
18765;BME280;9511;54.242;12.448;2024-02-04T13:25:20;100738.66;;;6.34;92.55
18765;BME280;9511;54.242;12.448;2024-02-04T13:27:48;100741.28;;;6.34;92.23
18765;BME280;9511;54.242;12.448;2024-02-04T13:30:16;100734.09;;;6.30;91.97
18765;BME280;9511;54.242;12.448;2024-02-04T13:32:46;100742.81;;;6.29;91.81
18765;BME280;9511;54.242;12.448;2024-02-04T13:35:13;100725.41;;;6.31;92.42
18765;BME280;9511;54.242;12.448;2024-02-04T13:37:43;100734.25;;;6.33;91.96
18765;BME280;9511;54.242;12.448;2024-02-04T13:40:13;100733.41;;;6.34;91.65
18765;BME280;9511;54.242;12.448;2024-02-04T13:42:41;100717.63;;;6.34;91.59
18765;BME280;9511;54.242;12.448;2024-02-04T13:45:08;100730.91;;;6.37;91.64
18765;BME280;9511;54.242;12.448;2024-02-04T13:47:36;100727.38;;;6.36;91.56
18765;BME280;9511;54.242;12.448;2024-02-04T13:50:06;100718.47;;;6.33;91.10
18765;BME280;9511;54.242;12.448;2024-02-04T13:52:34;100722.84;;;6.32;91.55
18765;BME280;9511;54.242;12.448;2024-02-04T13:55:01;100720.06;;;6.29;91.23
18765;BME280;9511;54.242;12.448;2024-02-04T13:57:31;100742.97;;;6.32;91.63
18765;BME280;9511;54.242;12.448;2024-02-04T13:59:59;100731.66;;;6.34;91.12
18765;BME280;9511;54.242;12.448;2024-02-04T14:02:26;100732.63;;;6.36;91.00
18765;BME280;9511;54.242;12.448;2024-02-04T14:04:55;100727.44;;;6.38;90.96
18765;BME280;9511;54.242;12.448;2024-02-04T14:07:25;100746.53;;;6.34;91.38
18765;BME280;9511;54.242;12.448;2024-02-04T14:09:52;100726.56;;;6.37;91.41
18765;BME280;9511;54.242;12.448;2024-02-04T14:12:19;100719.56;;;6.38;91.15
18765;BME280;9511;54.242;12.448;2024-02-04T14:14:46;100720.41;;;6.37;91.46
18765;BME280;9511;54.242;12.448;2024-02-04T14:17:14;100711.78;;;6.41;90.91
18765;BME280;9511;54.242;12.448;2024-02-04T14:19:41;100717.19;;;6.44;91.21
18765;BME280;9511;54.242;12.448;2024-02-04T14:22:11;100718.09;;;6.45;90.50
18765;BME280;9511;54.242;12.448;2024-02-04T14:24:39;100723.28;;;6.43;90.68
18765;BME280;9511;54.242;12.448;2024-02-04T14:27:07;100704.94;;;6.45;91.37
18765;BME280;9511;54.242;12.448;2024-02-04T14:29:34;100712.84;;;6.45;91.14
18765;BME280;9511;54.242;12.448;2024-02-04T14:32:02;100709.25;;;6.43;90.74
18765;BME280;9511;54.242;12.448;2024-02-04T14:34:29;100706.75;;;6.46;91.05
18765;BME280;9511;54.242;12.448;2024-02-04T14:36:57;100720.75;;;6.46;90.61
18765;BME280;9511;54.242;12.448;2024-02-04T14:39:24;100700.53;;;6.44;90.38
18765;BME280;9511;54.242;12.448;2024-02-04T14:41:52;100695.34;;;6.45;90.70
18765;BME280;9511;54.242;12.448;2024-02-04T14:44:20;100706.78;;;6.47;90.27
18765;BME280;9511;54.242;12.448;2024-02-04T14:46:47;100705.00;;;6.46;90.59
18765;BME280;9511;54.242;12.448;2024-02-04T14:49:15;100696.28;;;6.47;90.54
18765;BME280;9511;54.242;12.448;2024-02-04T14:51:42;100705.84;;;6.45;91.11
18765;BME280;9511;54.242;12.448;2024-02-04T14:54:10;100732.13;;;6.45;90.98
18765;BME280;9511;54.242;12.448;2024-02-04T14:56:37;100724.25;;;6.45;90.57
18765;BME280;9511;54.242;12.448;2024-02-04T14:59:08;100716.22;;;6.42;90.75
18765;BME280;9511;54.242;12.448;2024-02-04T15:01:36;100717.06;;;6.41;90.63
18765;BME280;9511;54.242;12.448;2024-02-04T15:04:03;100708.28;;;6.41;90.69
18765;BME280;9511;54.242;12.448;2024-02-04T15:06:31;100702.13;;;6.40;91.22
18765;BME280;9511;54.242;12.448;2024-02-04T15:08:58;100707.56;;;6.45;91.07
18765;BME280;9511;54.242;12.448;2024-02-04T15:11:26;100697.81;;;6.42;90.76
18765;BME280;9511;54.242;12.448;2024-02-04T15:13:56;100704.81;;;6.42;90.83
18765;BME280;9511;54.242;12.448;2024-02-04T15:16:25;100707.53;;;6.43;91.07
18765;BME280;9511;54.242;12.448;2024-02-04T15:18:53;100699.50;;;6.40;90.49
18765;BME280;9511;54.242;12.448;2024-02-04T15:21:21;100697.72;;;6.39;90.85
18765;BME280;9511;54.242;12.448;2024-02-04T15:23:50;100709.91;;;6.37;91.11
18765;BME280;9511;54.242;12.448;2024-02-04T15:26:20;100714.06;;;6.32;90.93
18765;BME280;9511;54.242;12.448;2024-02-04T15:28:50;100701.00;;;6.33;91.13
18765;BME280;9511;54.242;12.448;2024-02-04T15:31:18;100706.28;;;6.35;91.24
18765;BME280;9511;54.242;12.448;2024-02-04T15:33:48;100694.69;;;6.30;91.48
18765;BME280;9511;54.242;12.448;2024-02-04T15:36:15;100704.31;;;6.29;91.33
18765;BME280;9511;54.242;12.448;2024-02-04T15:38:42;100702.66;;;6.31;91.40
18765;BME280;9511;54.242;12.448;2024-02-04T15:41:10;100700.78;;;6.29;92.01
18765;BME280;9511;54.242;12.448;2024-02-04T15:43:37;100716.69;;;6.32;91.74
18765;BME280;9511;54.242;12.448;2024-02-04T15:46:07;100709.38;;;6.25;91.62
18765;BME280;9511;54.242;12.448;2024-02-04T15:48:37;100705.78;;;6.23;92.18
18765;BME280;9511;54.242;12.448;2024-02-04T15:51:07;100717.34;;;6.26;92.54
18765;BME280;9511;54.242;12.448;2024-02-04T15:53:35;100706.69;;;6.23;91.86
18765;BME280;9511;54.242;12.448;2024-02-04T15:56:05;100706.63;;;6.22;92.45
18765;BME280;9511;54.242;12.448;2024-02-04T15:58:34;100703.22;;;6.24;92.05
18765;BME280;9511;54.242;12.448;2024-02-04T16:01:09;100718.09;;;6.24;92.73
18765;BME280;9511;54.242;12.448;2024-02-04T16:03:38;100706.69;;;6.23;92.42
18765;BME280;9511;54.242;12.448;2024-02-04T16:06:08;100694.53;;;6.25;92.76
18765;BME280;9511;54.242;12.448;2024-02-04T16:08:36;100696.19;;;6.23;92.63
18765;BME280;9511;54.242;12.448;2024-02-04T16:11:07;100712.97;;;6.27;92.79
18765;BME280;9511;54.242;12.448;2024-02-04T16:13:41;100697.06;;;6.24;92.10
18765;BME280;9511;54.242;12.448;2024-02-04T16:16:13;100696.88;;;6.19;92.41
18765;BME280;9511;54.242;12.448;2024-02-04T16:18:42;100707.47;;;6.21;93.14
18765;BME280;9511;54.242;12.448;2024-02-04T16:21:10;100696.81;;;6.18;92.92
18765;BME280;9511;54.242;12.448;2024-02-04T16:23:37;100691.72;;;6.21;92.75
18765;BME280;9511;54.242;12.448;2024-02-04T16:26:05;100684.66;;;6.20;93.16
18765;BME280;9511;54.242;12.448;2024-02-04T16:28:32;100682.09;;;6.21;92.77
18765;BME280;9511;54.242;12.448;2024-02-04T16:30:59;100690.19;;;6.26;93.05
18765;BME280;9511;54.242;12.448;2024-02-04T16:33:27;100701.50;;;6.25;92.47
18765;BME280;9511;54.242;12.448;2024-02-04T16:35:54;100696.06;;;6.20;93.25
18765;BME280;9511;54.242;12.448;2024-02-04T16:38:22;100677.75;;;6.22;92.88
18765;BME280;9511;54.242;12.448;2024-02-04T16:40:50;100688.34;;;6.25;92.57
18765;BME280;9511;54.242;12.448;2024-02-04T16:43:17;100696.97;;;6.21;92.46
18765;BME280;9511;54.242;12.448;2024-02-04T16:45:45;100688.88;;;6.16;92.73
18765;BME280;9511;54.242;12.448;2024-02-04T16:48:12;100679.28;;;6.17;92.65
18765;BME280;9511;54.242;12.448;2024-02-04T16:50:39;100682.84;;;6.19;92.70
18765;BME280;9511;54.242;12.448;2024-02-04T16:53:06;100696.81;;;6.18;92.42
18765;BME280;9511;54.242;12.448;2024-02-04T16:55:35;100688.19;;;6.20;92.79
18765;BME280;9511;54.242;12.448;2024-02-04T16:58:02;100692.66;;;6.23;92.52
18765;BME280;9511;54.242;12.448;2024-02-04T17:00:30;100683.75;;;6.19;92.63
18765;BME280;9511;54.242;12.448;2024-02-04T17:02:58;100682.03;;;6.20;92.96
18765;BME280;9511;54.242;12.448;2024-02-04T17:05:26;100679.41;;;6.20;92.93
18765;BME280;9511;54.242;12.448;2024-02-04T17:07:54;100682.94;;;6.20;92.66
18765;BME280;9511;54.242;12.448;2024-02-04T17:10:22;100692.66;;;6.23;92.94